Time;durP1;ratioP1;P1;durP2;ratioP2;P2;SDS_P1;SDS_P2;PMS_P1;PMS_P2;Temp;Humidity;BMP_temperature;BMP_pressure;BME280_temperature;BME280_humidity;BME280_pressure;Samples;Min_cycle;Max_cycle;Signal;HPM_P1;HPM_P2
2021/08/24 00:00:38;;;;;;;12.90;6.15;;;14.60;99.90;;;;;;6176633;23;20047;-88
2021/08/24 00:03:04;;;;;;;11.35;6.63;;;14.60;99.90;;;;;;6162432;23;20489;-87
2021/08/24 00:05:35;;;;;;;13.85;5.80;;;14.60;99.90;;;;;;6135479;23;20016;-88
2021/08/24 00:08:01;;;;;;;12.82;6.00;;;14.60;99.90;;;;;;6183390;23;20020;-87
2021/08/24 00:10:30;;;;;;;13.10;6.32;;;14.50;99.90;;;;;;6157213;23;20103;-88
2021/08/24 00:12:56;;;;;;;12.77;7.03;;;14.50;99.90;;;;;;6182353;23;20019;-88
2021/08/24 00:15:23;;;;;;;11.38;6.13;;;14.50;99.90;;;;;;6157441;23;20318;-87
2021/08/24 00:17:49;;;;;;;9.38;6.55;;;14.50;99.90;;;;;;6182159;23;20345;-88
2021/08/24 00:20:15;;;;;;;17.73;7.15;;;14.50;99.90;;;;;;6132900;23;20046;-88
2021/08/24 00:22:41;;;;;;;12.27;6.47;;;14.50;99.90;;;;;;6233654;23;20016;-87
2021/08/24 00:25:10;;;;;;;11.02;7.07;;;14.40;99.90;;;;;;6182186;23;20070;-87
2021/08/24 00:27:36;;;;;;;11.07;6.72;;;14.40;99.90;;;;;;6182970;23;20456;-88
2021/08/24 00:30:04;;;;;;;11.40;6.97;;;14.40;99.90;;;;;;6156716;23;20012;-87
2021/08/24 00:32:30;;;;;;;15.27;7.32;;;14.40;99.90;;;;;;6181691;23;20066;-87
2021/08/24 00:34:56;;;;;;;14.43;7.72;;;14.40;99.90;;;;;;6182668;23;20016;-88
2021/08/24 00:37:23;;;;;;;13.88;7.45;;;14.40;99.90;;;;;;6157338;23;20440;-88
2021/08/24 00:39:49;;;;;;;12.13;6.97;;;14.40;99.90;;;;;;6181395;23;20047;-89
2021/08/24 00:42:19;;;;;;;13.50;7.45;;;14.40;99.90;;;;;;6183693;23;20082;-89
2021/08/24 00:44:47;;;;;;;13.20;7.45;;;14.40;99.90;;;;;;6159222;23;20016;-88
2021/08/24 00:47:15;;;;;;;13.95;7.20;;;14.40;99.90;;;;;;6206105;23;20026;-89
2021/08/24 00:49:42;;;;;;;12.80;7.50;;;14.40;99.90;;;;;;6180813;23;20341;-88
2021/08/24 00:52:11;;;;;;;14.70;8.35;;;14.40;99.90;;;;;;6180760;23;20015;-89
2021/08/24 00:54:38;;;;;;;13.40;7.50;;;14.40;99.90;;;;;;6182601;23;20012;-89
2021/08/24 00:57:17;;;;;;;12.10;7.25;;;14.40;99.90;;;;;;6133538;23;20123;-90
2021/08/24 00:59:43;;;;;;;12.75;6.55;;;14.40;99.90;;;;;;6182002;23;20105;-88
2021/08/24 01:02:11;;;;;;;16.00;7.63;;;14.40;99.90;;;;;;6159514;23;20020;-88
2021/08/24 01:04:38;;;;;;;13.77;7.57;;;14.40;99.90;;;;;;6184629;23;20097;-87
2021/08/24 01:07:19;;;;;;;14.40;6.65;;;14.40;99.90;;;;;;6183851;23;20589;-89
2021/08/24 01:09:51;;;;;;;20.35;7.30;;;14.40;99.90;;;;;;6183313;23;20016;-88
2021/08/24 01:12:45;;;;;;;13.13;6.70;;;14.40;99.90;;;;;;6184081;23;20019;-88
2021/08/24 01:15:29;;;;;;;12.43;7.40;;;14.30;99.90;;;;;;6185176;23;20023;-89
2021/08/24 01:18:03;;;;;;;15.77;7.50;;;14.30;99.90;;;;;;6184049;23;20070;-86
2021/08/24 01:21:03;;;;;;;9.55;6.78;;;14.30;99.90;;;;;;6183632;23;20095;-88
2021/08/24 01:23:35;;;;;;;14.80;7.35;;;14.30;99.90;;;;;;6182695;23;20027;-86
2021/08/24 01:26:36;;;;;;;15.63;8.33;;;14.30;99.90;;;;;;6184251;23;20016;-86
2021/08/24 01:29:39;;;;;;;11.50;7.25;;;14.30;99.90;;;;;;6162629;23;20015;-87
2021/08/24 01:32:11;;;;;;;;;;;14.30;99.90;;;;;;6184999;23;20030;-88
2021/08/24 01:34:48;;;;;;;13.75;7.68;;;14.30;99.90;;;;;;6211377;23;19913;-90
2021/08/24 01:37:37;;;;;;;20.17;7.82;;;14.30;99.90;;;;;;6182985;23;20080;-87
2021/08/24 01:40:11;;;;;;;16.98;8.15;;;14.30;99.90;;;;;;6127938;23;20023;-85
2021/08/24 01:42:37;;;;;;;14.68;8.27;;;14.30;99.90;;;;;;6182762;23;20094;-86
2021/08/24 01:45:10;;;;;;;16.42;8.27;;;14.30;99.90;;;;;;6134354;23;20048;-88
2021/08/24 01:47:38;;;;;;;13.10;7.80;;;14.30;99.90;;;;;;6184096;23;20016;-87
2021/08/24 01:50:24;;;;;;;14.07;8.52;;;14.30;99.90;;;;;;6183696;23;20067;-86
2021/08/24 01:52:58;;;;;;;12.63;7.75;;;14.30;99.90;;;;;;6185004;23;20285;-87
2021/08/24 01:55:27;;;;;;;15.25;8.75;;;14.20;99.90;;;;;;6184267;23;20012;-89
2021/08/24 01:58:06;;;;;;;17.05;9.50;;;14.20;99.90;;;;;;6208987;23;20660;-86
2021/08/24 02:00:35;;;;;;;16.17;9.50;;;14.30;99.90;;;;;;6186228;23;20449;-88
2021/08/24 02:03:09;;;;;;;16.85;8.73;;;14.20;99.90;;;;;;6160157;23;20022;-87
2021/08/24 02:05:43;;;;;;;16.80;8.93;;;14.20;99.90;;;;;;6185289;23;20023;-85
2021/08/24 02:08:15;;;;;;;19.33;9.57;;;14.20;99.90;;;;;;6183410;23;20012;-89
2021/08/24 02:10:46;;;;;;;18.33;9.30;;;14.20;99.90;;;;;;6183249;23;20024;-88
2021/08/24 02:13:14;;;;;;;16.65;9.48;;;14.20;99.90;;;;;;6184038;23;20015;-87
2021/08/24 02:15:47;;;;;;;13.77;9.30;;;14.20;99.90;;;;;;6184222;23;20014;-88
2021/08/24 02:18:15;;;;;;;;;;;14.20;99.90;;;;;;6184274;23;20437;-87
2021/08/24 02:20:51;;;;;;;24.75;10.93;;;14.20;99.90;;;;;;6210188;23;19953;-87
2021/08/24 02:23:23;;;;;;;14.95;10.25;;;14.20;99.90;;;;;;6204386;23;20004;-87
2021/08/24 02:25:53;;;;;;;17.00;9.90;;;14.20;99.90;;;;;;6196450;23;20020;-88
2021/08/24 02:28:24;;;;;;;20.67;9.57;;;14.20;99.90;;;;;;6183804;23;20348;-87
2021/08/24 02:30:57;;;;;;;18.07;9.83;;;14.10;99.90;;;;;;6183102;23;20091;-86
2021/08/24 02:33:30;;;;;;;14.82;9.80;;;14.10;99.90;;;;;;6183312;23;20012;-87
2021/08/24 02:36:01;;;;;;;15.52;10.50;;;14.10;99.90;;;;;;6184736;23;20016;-87
2021/08/24 02:38:29;;;;;;;17.42;10.27;;;14.10;99.90;;;;;;6183115;23;20008;-86
2021/08/24 02:41:13;;;;;;;17.35;9.93;;;14.10;99.90;;;;;;6182302;23;20412;-86
2021/08/24 02:43:57;;;;;;;13.02;8.95;;;14.10;99.90;;;;;;6183124;23;20078;-87
2021/08/24 02:46:46;;;;;;;15.23;9.05;;;14.10;99.90;;;;;;6182413;23;20372;-86
2021/08/24 02:49:23;;;;;;;16.30;9.43;;;14.10;99.90;;;;;;6182554;23;20148;-88
2021/08/24 02:51:51;;;;;;;18.55;9.88;;;14.10;99.90;;;;;;6182933;23;20408;-87
2021/08/24 02:54:27;;;;;;;18.48;9.23;;;14.00;99.90;;;;;;6181696;23;20009;-86
2021/08/24 02:56:54;;;;;;;15.85;9.07;;;14.00;99.90;;;;;;6183185;23;20011;-86
2021/08/24 02:59:21;;;;;;;14.95;8.48;;;14.00;99.90;;;;;;6183549;23;20271;-86
2021/08/24 03:01:46;;;;;;;13.73;9.18;;;14.00;99.90;;;;;;6131697;23;20023;-87
2021/08/24 03:04:12;;;;;;;22.33;10.23;;;14.10;99.90;;;;;;6158943;23;20012;-89
2021/08/24 03:06:43;;;;;;;17.65;8.95;;;14.00;99.90;;;;;;6133647;23;20051;-89
2021/08/24 03:09:11;;;;;;;18.02;10.05;;;14.10;99.90;;;;;;6183946;23;20016;-89
2021/08/24 03:12:19;;;;;;;17.30;10.50;;;14.00;99.90;;;;;;6158881;23;20103;-87
2021/08/24 03:15:20;;;;;;;15.82;9.38;;;14.00;99.90;;;;;;6126479;23;20016;-87
2021/08/24 03:17:57;;;;;;;15.32;9.30;;;14.00;99.90;;;;;;6159478;23;20407;-85
2021/08/24 03:20:29;;;;;;;24.17;10.10;;;14.00;99.90;;;;;;6183146;23;20031;-87
2021/08/24 03:22:55;;;;;;;16.58;9.65;;;14.00;99.90;;;;;;6233067;23;20090;-87
2021/08/24 03:25:22;;;;;;;19.02;9.88;;;14.00;99.90;;;;;;6158039;23;20094;-87
2021/08/24 03:27:51;;;;;;;14.85;9.55;;;14.00;99.90;;;;;;6183061;23;20019;-87
2021/08/24 03:30:19;;;;;;;19.42;9.90;;;14.00;99.90;;;;;;6134710;23;20019;-87
2021/08/24 03:32:45;;;;;;;18.58;9.88;;;14.00;99.90;;;;;;6183492;23;20015;-89
2021/08/24 03:35:11;;;;;;;17.98;10.00;;;14.00;99.90;;;;;;6182810;23;20269;-86
2021/08/24 03:37:38;;;;;;;17.85;10.07;;;14.00;99.90;;;;;;6157518;23;20008;-88
2021/08/24 03:40:07;;;;;;;12.82;8.93;;;14.00;99.90;;;;;;6131523;23;20019;-87
2021/08/24 03:42:33;;;;;;;16.52;9.65;;;14.00;99.90;;;;;;6182180;23;20016;-88
2021/08/24 03:44:59;;;;;;;19.73;10.25;;;14.00;99.90;;;;;;6182533;23;20027;-87
2021/08/24 03:47:25;;;;;;;17.88;10.10;;;14.00;99.90;;;;;;6157713;23;20474;-89
2021/08/24 03:49:51;;;;;;;18.02;9.30;;;14.00;99.90;;;;;;6157574;23;20036;-87
2021/08/24 03:52:16;;;;;;;19.48;10.80;;;14.00;99.90;;;;;;6132922;23;20013;-88
2021/08/24 03:54:42;;;;;;;20.85;10.85;;;14.00;99.90;;;;;;6133418;23;20012;-87
2021/08/24 03:57:08;;;;;;;20.10;11.32;;;14.00;99.90;;;;;;6157001;23;20016;-87
2021/08/24 03:59:34;;;;;;;22.33;10.02;;;14.00;99.90;;;;;;6133796;23;20074;-87
2021/08/24 04:02:01;;;;;;;20.50;11.27;;;14.00;99.90;;;;;;6157644;23;20012;-88
2021/08/24 04:04:27;;;;;;;20.63;11.30;;;14.00;99.90;;;;;;6157076;23;20020;-87
2021/08/24 04:06:53;;;;;;;18.30;10.00;;;13.90;99.90;;;;;;6132518;23;20012;-88
2021/08/24 04:09:19;;;;;;;12.63;9.20;;;13.90;99.90;;;;;;6182329;23;20051;-88
2021/08/24 04:11:44;;;;;;;13.85;9.02;;;13.90;99.90;;;;;;6186160;23;20016;-88
2021/08/24 04:14:11;;;;;;;18.25;10.05;;;13.90;99.90;;;;;;6159200;23;20062;-87
2021/08/24 04:16:37;;;;;;;17.15;9.25;;;13.90;99.90;;;;;;6158974;23;20012;-87
2021/08/24 04:19:02;;;;;;;15.57;9.70;;;13.90;99.90;;;;;;6134649;23;20523;-87
2021/08/24 04:21:30;;;;;;;16.38;10.60;;;13.90;99.90;;;;;;6137250;23;20016;-88
2021/08/24 04:23:55;;;;;;;24.38;10.73;;;13.90;99.90;;;;;;6157225;23;20044;-88
2021/08/24 04:26:21;;;;;;;14.88;9.93;;;13.90;99.90;;;;;;6157821;23;20046;-88
2021/08/24 04:28:47;;;;;;;19.63;10.35;;;13.90;99.90;;;;;;6156902;23;20150;-88
2021/08/24 04:31:16;;;;;;;18.55;9.93;;;13.80;99.90;;;;;;6156311;23;20441;-88
2021/08/24 04:33:43;;;;;;;19.58;10.20;;;13.90;99.90;;;;;;6183477;23;20402;-88
2021/08/24 04:36:09;;;;;;;21.25;9.55;;;13.90;99.90;;;;;;6159935;23;20503;-91
2021/08/24 04:38:35;;;;;;;14.85;9.48;;;13.90;99.90;;;;;;6160525;23;20012;-89
2021/08/24 04:41:02;;;;;;;19.50;10.55;;;13.90;99.90;;;;;;6136097;23;20016;-88
2021/08/24 04:43:28;;;;;;;19.05;10.32;;;13.90;99.90;;;;;;6161179;23;20031;-89
2021/08/24 04:45:54;;;;;;;20.00;10.90;;;13.90;99.90;;;;;;6184805;23;20012;-88
2021/08/24 04:48:20;;;;;;;17.70;10.25;;;13.90;99.90;;;;;;6186020;23;20053;-88
2021/08/24 04:50:46;;;;;;;22.23;10.57;;;13.90;99.90;;;;;;6185681;23;20012;-87
2021/08/24 04:53:12;;;;;;;23.40;11.85;;;13.90;99.90;;;;;;6186474;23;20012;-88
2021/08/24 04:55:39;;;;;;;18.58;11.07;;;14.00;99.90;;;;;;6160108;23;20016;-89
2021/08/24 04:58:05;;;;;;;18.58;10.68;;;14.00;99.90;;;;;;6185770;23;20537;-89
2021/08/24 05:00:32;;;;;;;16.70;10.10;;;13.90;99.90;;;;;;6185503;23;20016;-88
2021/08/24 05:02:58;;;;;;;18.13;9.85;;;14.00;99.90;;;;;;6185099;23;20020;-88
2021/08/24 05:05:24;;;;;;;18.85;9.85;;;14.00;99.90;;;;;;6185059;23;20012;-88
2021/08/24 05:07:50;;;;;;;15.20;9.93;;;14.00;99.90;;;;;;6184880;23;20187;-89
2021/08/24 05:10:16;;;;;;;17.33;10.77;;;14.00;99.90;;;;;;6132606;23;20073;-88
2021/08/24 05:12:41;;;;;;;19.80;10.65;;;14.10;99.90;;;;;;6133265;23;20062;-88
2021/08/24 05:15:08;;;;;;;18.48;10.30;;;14.10;99.90;;;;;;6134958;23;20111;-88
2021/08/24 05:17:34;;;;;;;16.55;10.05;;;14.10;99.90;;;;;;6158329;23;20069;-88
2021/08/24 05:20:00;;;;;;;15.45;10.30;;;14.20;99.90;;;;;;6153306;23;20095;-88
2021/08/24 05:22:25;;;;;;;21.83;11.43;;;14.20;99.90;;;;;;6179076;23;20105;-87
2021/08/24 05:24:51;;;;;;;20.98;11.07;;;14.20;99.90;;;;;;6124747;23;20024;-89
2021/08/24 05:27:17;;;;;;;24.48;12.40;;;14.20;99.90;;;;;;6152187;23;20020;-87
2021/08/24 05:29:43;;;;;;;24.33;10.90;;;14.20;99.90;;;;;;6150848;23;20476;-86
2021/08/24 05:32:09;;;;;;;19.65;11.93;;;14.20;99.90;;;;;;6176851;23;20012;-87
2021/08/24 05:34:35;;;;;;;22.15;11.25;;;14.30;99.90;;;;;;6174369;23;20159;-90
2021/08/24 05:37:01;;;;;;;19.55;10.55;;;14.30;99.90;;;;;;6152198;23;20119;-88
2021/08/24 05:39:27;;;;;;;20.55;11.10;;;14.30;99.90;;;;;;6150042;23;20031;-89
2021/08/24 05:41:53;;;;;;;22.08;11.85;;;14.40;99.90;;;;;;6126837;23;20016;-87
2021/08/24 05:44:19;;;;;;;28.33;11.43;;;14.50;99.90;;;;;;6149972;23;20379;-89
2021/08/24 05:46:44;;;;;;;21.65;11.13;;;14.50;99.90;;;;;;6133845;23;20027;-88
2021/08/24 05:49:10;;;;;;;18.75;11.13;;;14.60;99.90;;;;;;6130003;23;20012;-87
2021/08/24 05:51:38;;;;;;;22.00;12.05;;;14.60;99.90;;;;;;6129791;23;20019;-88
2021/08/24 05:54:04;;;;;;;18.27;11.25;;;14.60;99.90;;;;;;6179589;23;20086;-89
2021/08/24 05:56:31;;;;;;;23.92;12.60;;;14.70;99.90;;;;;;6157376;23;20031;-90
2021/08/24 05:58:57;;;;;;;26.55;12.38;;;14.80;99.90;;;;;;6181641;23;20411;-89
2021/08/24 06:01:27;;;;;;;17.52;11.65;;;14.80;99.90;;;;;;6182050;23;20075;-88
2021/08/24 06:03:53;;;;;;;26.27;13.32;;;14.90;99.90;;;;;;6179735;23;20022;-89
2021/08/24 06:06:27;;;;;;;19.35;11.80;;;14.90;99.90;;;;;;6158485;23;20348;-88
2021/08/24 06:08:57;;;;;;;22.85;12.45;;;15.00;99.90;;;;;;6184577;23;20016;-91
2021/08/24 06:11:24;;;;;;;28.30;13.80;;;15.10;99.90;;;;;;6180517;23;20441;-89
2021/08/24 06:13:51;;;;;;;22.02;11.57;;;15.10;99.90;;;;;;6181185;23;20547;-87
2021/08/24 06:16:17;;;;;;;22.10;12.02;;;15.20;99.90;;;;;;6155838;23;20019;-88
2021/08/24 06:18:44;;;;;;;21.48;11.77;;;15.20;99.90;;;;;;6182804;23;20248;-88
2021/08/24 06:21:10;;;;;;;18.80;10.80;;;15.30;99.90;;;;;;6182372;23;20062;-89
2021/08/24 06:23:36;;;;;;;21.23;10.80;;;15.30;99.90;;;;;;6133256;23;20023;-88
2021/08/24 06:26:02;;;;;;;16.55;9.80;;;15.40;99.90;;;;;;6183617;23;20012;-89
2021/08/24 06:28:28;;;;;;;15.00;9.48;;;15.50;99.90;;;;;;6131662;23;20019;-88
2021/08/24 06:30:53;;;;;;;20.50;9.77;;;15.60;99.90;;;;;;6130962;23;20012;-89
2021/08/24 06:33:23;;;;;;;17.05;10.10;;;15.60;99.90;;;;;;6130054;23;20066;-90
2021/08/24 06:35:49;;;;;;;22.88;9.30;;;15.70;99.90;;;;;;6180702;23;20606;-88
2021/08/24 06:38:14;;;;;;;15.20;8.43;;;15.80;99.90;;;;;;6130700;23;20012;-88
2021/08/24 06:40:40;;;;;;;15.57;8.57;;;15.80;99.90;;;;;;6130657;23;20026;-88
2021/08/24 06:43:06;;;;;;;17.35;7.78;;;16.00;99.90;;;;;;6131479;23;20536;-90
2021/08/24 06:45:34;;;;;;;18.23;9.02;;;16.00;99.90;;;;;;6156425;23;20062;-89
2021/08/24 06:48:00;;;;;;;17.88;8.77;;;16.10;99.90;;;;;;6157452;23;20016;-90
2021/08/24 06:50:28;;;;;;;16.38;7.78;;;16.10;99.90;;;;;;6132212;23;20019;-88
2021/08/24 06:52:55;;;;;;;15.95;7.72;;;16.10;99.90;;;;;;6180072;23;20444;-88
2021/08/24 06:55:25;;;;;;;14.43;7.13;;;16.20;99.90;;;;;;6132453;23;20376;-88
2021/08/24 06:57:51;;;;;;;16.23;7.95;;;16.20;99.90;;;;;;6181639;23;20012;-90
2021/08/24 07:00:23;;;;;;;15.30;7.60;;;16.20;99.90;;;;;;6157681;23;20047;-88
2021/08/24 07:02:49;;;;;;;15.20;7.82;;;16.30;99.90;;;;;;6178702;23;20015;-88
2021/08/24 07:05:20;;;;;;;18.08;7.60;;;16.30;99.90;;;;;;6158452;23;20025;-90
2021/08/24 07:07:45;;;;;;;17.65;7.32;;;16.40;99.90;;;;;;6180507;23;20114;-92
2021/08/24 07:10:13;;;;;;;15.80;7.95;;;16.40;99.90;;;;;;6158879;23;20016;-91
2021/08/24 07:12:40;;;;;;;16.00;7.57;;;16.50;99.90;;;;;;6184115;23;20008;-87
2021/08/24 07:15:13;;;;;;;19.88;8.15;;;16.50;99.90;;;;;;6160644;23;20039;-87
2021/08/24 07:17:47;;;;;;;13.90;7.28;;;16.60;99.90;;;;;;6183181;23;20020;-91
2021/08/24 07:20:24;;;;;;;14.27;7.28;;;16.60;99.90;;;;;;6209673;23;20471;-88
2021/08/24 07:22:50;;;;;;;15.90;7.72;;;16.70;99.90;;;;;;6160867;23;20030;-89
2021/08/24 07:25:21;;;;;;;14.75;7.53;;;16.80;99.90;;;;;;6160989;23;20012;-93
2021/08/24 07:27:47;;;;;;;16.70;8.40;;;16.80;99.90;;;;;;6182305;23;20345;-89
2021/08/24 07:30:15;;;;;;;18.50;7.90;;;16.80;99.90;;;;;;6185417;23;20078;-89
2021/08/24 07:32:44;;;;;;;11.02;7.80;;;16.90;99.90;;;;;;6180426;23;20012;-89
2021/08/24 07:35:11;;;;;;;15.23;8.55;;;17.00;99.90;;;;;;6188221;23;20048;-90
2021/08/24 07:37:37;;;;;;;14.95;7.47;;;17.00;99.90;;;;;;6160168;23;20008;-91
2021/08/24 07:40:05;;;;;;;18.70;8.63;;;17.20;99.90;;;;;;6159209;23;20472;-88
2021/08/24 07:42:31;;;;;;;15.05;7.53;;;17.20;99.90;;;;;;6185829;23;20012;-90
2021/08/24 07:44:56;;;;;;;12.75;7.63;;;17.30;99.90;;;;;;6161954;23;20544;-86
2021/08/24 07:47:22;;;;;;;12.48;7.15;;;17.30;99.90;;;;;;6135810;23;20016;-89
2021/08/24 07:49:50;;;;;;;11.75;6.80;;;17.20;99.90;;;;;;6135691;23;20531;-88
2021/08/24 07:52:16;;;;;;;13.98;6.45;;;17.30;99.90;;;;;;6158756;23;20443;-87
2021/08/24 07:54:42;;;;;;;15.32;6.20;;;17.40;99.90;;;;;;6158524;23;20468;-90
2021/08/24 07:57:14;;;;;;;15.70;7.88;;;17.50;99.90;;;;;;6135348;23;20064;-89
2021/08/24 07:59:40;;;;;;;11.25;6.15;;;17.70;99.90;;;;;;6159044;23;20016;-90
2021/08/24 08:02:12;;;;;;;10.68;6.28;;;17.80;99.90;;;;;;6157778;23;20078;-88
2021/08/24 08:04:38;;;;;;;16.10;6.80;;;17.80;99.90;;;;;;6184358;23;20519;-88
2021/08/24 08:07:03;;;;;;;9.27;6.00;;;17.80;99.90;;;;;;6132984;23;20247;-88
2021/08/24 08:09:45;;;;;;;13.60;5.63;;;17.90;99.90;;;;;;6158863;23;20020;-87
2021/08/24 08:12:16;;;;;;;16.50;6.38;;;18.00;99.90;;;;;;6181664;23;20016;-90
2021/08/24 08:14:42;;;;;;;12.13;6.87;;;18.10;99.90;;;;;;6182872;23;20019;-89
2021/08/24 08:17:10;;;;;;;15.65;6.60;;;18.10;99.90;;;;;;6181460;23;20243;-91
2021/08/24 08:20:03;;;;;;;18.58;7.35;;;18.20;99.90;;;;;;6133230;23;20023;-90
2021/08/24 08:22:29;;;;;;;;;;;18.20;99.90;;;;;;6198253;23;20020;-87
2021/08/24 08:24:54;;;;;;;9.48;5.03;;;18.20;99.90;;;;;;6203965;23;19950;-89
2021/08/24 08:27:25;;;;;;;14.85;5.43;;;18.20;99.90;;;;;;6135488;23;20454;-92
2021/08/24 08:29:51;;;;;;;9.20;4.90;;;18.20;99.90;;;;;;6158399;23;20420;-87
2021/08/24 08:32:37;;;;;;;9.30;4.45;;;18.30;99.90;;;;;;6157534;23;20575;-91
2021/08/24 08:35:03;;;;;;;6.30;4.20;;;18.40;99.90;;;;;;6183721;23;20441;-87
2021/08/24 08:37:29;;;;;;;10.10;4.60;;;18.40;99.90;;;;;;6158292;23;20364;-90
2021/08/24 08:39:55;;;;;;;7.50;3.55;;;18.50;99.20;;;;;;6159105;23;20016;-88
2021/08/24 08:42:33;;;;;;;6.22;3.50;;;18.50;98.80;;;;;;6133163;23;20020;-92
2021/08/24 08:45:22;;;;;;;13.27;4.57;;;18.50;98.80;;;;;;6180295;23;20016;-90
2021/08/24 08:48:34;;;;;;;7.93;5.13;;;18.60;98.70;;;;;;6181946;23;20139;-88
2021/08/24 08:51:12;;;;;;;10.40;5.35;;;18.60;97.90;;;;;;6183008;23;20016;-89
2021/08/24 08:54:12;;;;;;;10.52;4.53;;;18.50;98.50;;;;;;6182504;23;20459;-88
2021/08/24 08:56:52;;;;;;;11.60;5.40;;;18.50;98.80;;;;;;6182717;23;20020;-88
2021/08/24 08:59:43;;;;;;;11.32;5.57;;;18.50;98.70;;;;;;6182915;23;20017;-91
2021/08/24 09:02:57;;;;;;;7.68;4.50;;;18.60;98.40;;;;;;6185047;23;20078;-88
2021/08/24 09:05:25;;;;;;;9.90;4.65;;;18.70;98.30;;;;;;6080204;23;20046;-90
2021/08/24 09:07:54;;;;;;;10.60;5.30;;;18.70;98.30;;;;;;6159728;23;20015;-89
2021/08/24 09:10:28;;;;;;;9.05;5.13;;;18.80;97.90;;;;;;6182493;23;20476;-89
2021/08/24 09:13:04;;;;;;;8.15;5.05;;;18.90;97.60;;;;;;6185504;23;20052;-87
2021/08/24 09:15:56;;;;;;;8.38;5.25;;;18.90;97.60;;;;;;6187183;23;20074;-89
2021/08/24 09:19:03;;;;;;;9.70;4.82;;;18.90;96.50;;;;;;6185795;23;20373;-89
2021/08/24 09:21:46;;;;;;;12.30;5.05;;;18.90;97.10;;;;;;6210490;23;20103;-88
2021/08/24 09:24:20;;;;;;;7.70;5.15;;;18.80;97.40;;;;;;6187247;23;20514;-87
2021/08/24 09:27:10;;;;;;;10.38;5.07;;;18.80;97.50;;;;;;6184455;23;20066;-89
2021/08/24 09:29:48;;;;;;;10.80;4.60;;;18.80;97.10;;;;;;6187084;23;20021;-89
2021/08/24 09:32:19;;;;;;;12.57;4.25;;;18.70;96.90;;;;;;6185089;23;20507;-89
2021/08/24 09:34:47;;;;;;;9.60;4.45;;;18.70;96.90;;;;;;6184679;23;20012;-86
2021/08/24 09:37:19;;;;;;;13.15;4.80;;;18.80;96.50;;;;;;6187031;23;20008;-89
2021/08/24 09:39:57;;;;;;;8.07;3.60;;;18.80;96.60;;;;;;6208285;23;20428;-89
2021/08/24 09:42:43;;;;;;;6.85;3.80;;;18.90;96.50;;;;;;6183660;23;20312;-89
2021/08/24 09:45:24;;;;;;;4.55;3.60;;;19.00;95.10;;;;;;6205468;23;20112;-88
2021/08/24 09:47:55;;;;;;;6.78;3.50;;;19.10;95.00;;;;;;6181625;23;20356;-87
2021/08/24 09:50:27;;;;;;;5.07;3.43;;;19.20;94.60;;;;;;6183872;23;20562;-87
2021/08/24 09:52:53;;;;;;;7.63;4.20;;;19.20;94.30;;;;;;6182051;23;20338;-87
2021/08/24 09:55:27;;;;;;;9.27;4.72;;;19.20;94.50;;;;;;6184394;23;20047;-90
2021/08/24 09:57:58;;;;;;;9.88;4.55;;;19.30;93.90;;;;;;6184304;23;20015;-89
2021/08/24 10:00:53;;;;;;;7.13;4.07;;;19.30;93.70;;;;;;6183500;23;20016;-90
2021/08/24 10:03:34;;;;;;;8.88;4.15;;;19.30;93.10;;;;;;6183772;23;20504;-87
2021/08/24 10:06:26;;;;;;;7.32;3.60;;;19.30;92.10;;;;;;6181902;23;20020;-87
2021/08/24 10:08:55;;;;;;;7.32;3.33;;;19.40;92.40;;;;;;6182387;23;20012;-87
2021/08/24 10:11:32;;;;;;;5.32;3.60;;;19.40;91.90;;;;;;6180704;23;20107;-87
2021/08/24 10:14:25;;;;;;;7.68;3.67;;;19.40;91.40;;;;;;6206800;23;20043;-89
2021/08/24 10:16:55;;;;;;;8.77;3.08;;;19.50;91.10;;;;;;6185698;23;20008;-87
2021/08/24 10:19:31;;;;;;;6.50;2.88;;;19.60;91.40;;;;;;6187457;23;20531;-88
2021/08/24 10:22:11;;;;;;;7.65;2.88;;;19.50;88.00;;;;;;6186004;23;20095;-90
2021/08/24 10:24:54;;;;;;;4.75;2.40;;;19.50;90.80;;;;;;6183201;23;20023;-89
2021/08/24 10:27:36;;;;;;;6.68;2.88;;;19.60;88.30;;;;;;6179982;23;20016;-87
2021/08/24 10:30:07;;;;;;;;;;;19.60;88.60;;;;;;6181973;23;20480;-87
2021/08/24 10:32:38;;;;;;;6.63;2.88;;;19.60;88.50;;;;;;6204532;23;20366;-88
2021/08/24 10:35:24;;;;;;;4.03;2.87;;;19.60;88.50;;;;;;6178295;23;20014;-87
2021/08/24 10:38:02;;;;;;;8.43;3.15;;;19.60;86.10;;;;;;6178917;23;20020;-86
2021/08/24 10:41:14;;;;;;;5.65;2.65;;;19.60;85.80;;;;;;6184765;23;20024;-89
2021/08/24 10:43:50;;;;;;;5.93;2.95;;;19.60;88.10;;;;;;6185415;23;20016;-86
2021/08/24 10:46:17;;;;;;;8.60;2.83;;;19.60;88.70;;;;;;6175582;23;20022;-85
2021/08/24 10:48:43;;;;;;;9.02;2.50;;;19.60;89.90;;;;;;6182012;23;20094;-88
2021/08/24 10:51:37;;;;;;;5.15;2.47;;;19.60;87.30;;;;;;6180376;23;20023;-88
2021/08/24 10:54:08;;;;;;;4.18;2.30;;;19.70;82.80;;;;;;6181850;23;20271;-86
2021/08/24 10:56:57;;;;;;;4.78;2.67;;;19.80;84.60;;;;;;6183097;23;20091;-84
2021/08/24 11:00:13;;;;;;;5.05;2.65;;;19.80;84.10;;;;;;6232877;23;20178;-88
2021/08/24 11:02:57;;;;;;;5.43;2.70;;;20.00;83.90;;;;;;6091817;23;20023;-86
2021/08/24 11:05:50;;;;;;;5.95;3.20;;;20.00;80.00;;;;;;6184223;23;20039;-87
2021/08/24 11:09:16;;;;;;;5.78;2.70;;;20.00;80.50;;;;;;6182562;23;20054;-86
2021/08/24 11:12:00;;;;;;;4.55;2.53;;;20.00;85.20;;;;;;6061337;23;20374;-88
2021/08/24 11:14:50;;;;;;;6.18;2.67;;;19.90;83.80;;;;;;6083445;23;20049;-86
2021/08/24 11:17:16;;;;;;;5.72;2.83;;;20.00;85.20;;;;;;6149707;23;20016;-86
2021/08/24 11:19:57;;;;;;;5.03;2.53;;;20.00;85.80;;;;;;6179874;23;20518;-84
2021/08/24 11:22:40;;;;;;;3.95;2.50;;;20.00;86.60;;;;;;6178162;23;20321;-85
2021/08/24 11:25:15;;;;;;;4.07;2.45;;;20.10;84.90;;;;;;6183618;23;20408;-86
2021/08/24 11:28:03;;;;;;;5.97;2.83;;;20.10;82.10;;;;;;6182040;23;20047;-85
2021/08/24 11:30:41;;;;;;;8.57;2.70;;;20.20;81.70;;;;;;6181095;23;20464;-88
2021/08/24 11:33:14;;;;;;;6.97;2.78;;;20.20;80.40;;;;;;6180038;23;20023;-88
2021/08/24 11:35:55;;;;;;;3.63;2.60;;;20.20;81.30;;;;;;6179140;23;20471;-88
2021/08/24 11:38:30;;;;;;;5.63;2.60;;;20.20;79.90;;;;;;6182505;23;20016;-86
2021/08/24 11:41:00;;;;;;;4.53;2.40;;;20.30;78.30;;;;;;6180525;23;20011;-90
2021/08/24 11:43:45;;;;;;;4.80;2.65;;;20.30;79.30;;;;;;6181121;23;20027;-86
2021/08/24 11:46:54;;;;;;;3.55;2.40;;;20.20;73.40;;;;;;6185243;23;20019;-86
2021/08/24 11:49:48;;;;;;;3.80;2.55;;;20.20;77.20;;;;;;6182556;23;20027;-85
2021/08/24 11:52:48;;;;;;;3.63;2.38;;;20.10;77.10;;;;;;6183987;23;20085;-87
2021/08/24 11:55:16;;;;;;;4.50;2.50;;;20.20;76.70;;;;;;6181480;23;20521;-86
2021/08/24 11:57:51;;;;;;;5.55;2.55;;;20.20;76.60;;;;;;6206911;23;20470;-87
2021/08/24 12:00:17;;;;;;;3.00;2.30;;;20.30;76.60;;;;;;6179666;23;20023;-87
2021/08/24 12:02:50;;;;;;;4.38;2.50;;;20.30;78.00;;;;;;6134498;23;20095;-87
2021/08/24 12:05:33;;;;;;;8.25;2.75;;;20.30;76.30;;;;;;6181208;23;20512;-88
2021/08/24 12:08:26;;;;;;;3.90;2.28;;;20.30;75.40;;;;;;6185174;23;20334;-87
2021/08/24 12:11:26;;;;;;;4.60;2.30;;;20.30;77.00;;;;;;6202860;23;20023;-86
2021/08/24 12:13:54;;;;;;;6.03;2.53;;;20.40;77.80;;;;;;6155446;23;20027;-85
2021/08/24 12:16:28;;;;;;;4.70;2.30;;;20.40;77.00;;;;;;6183161;23;20019;-88
2021/08/24 12:18:57;;;;;;;5.10;2.30;;;20.50;74.80;;;;;;6180275;23;20081;-88
2021/08/24 12:21:23;;;;;;;3.17;2.50;;;20.50;72.30;;;;;;6181159;23;20016;-88
2021/08/24 12:23:49;;;;;;;5.07;2.58;;;20.50;72.50;;;;;;6182439;23;20265;-87
2021/08/24 12:26:32;;;;;;;4.60;2.33;;;20.50;72.60;;;;;;6158695;23;20444;-87
2021/08/24 12:29:36;;;;;;;11.35;2.65;;;20.50;72.30;;;;;;6180686;23;20020;-86
2021/08/24 12:32:08;;;;;;;5.93;2.60;;;20.60;73.50;;;;;;6181041;23;20091;-86
2021/08/24 12:34:34;;;;;;;5.07;2.20;;;20.60;71.70;;;;;;6207914;23;20012;-86
2021/08/24 12:37:18;;;;;;;8.40;2.67;;;20.60;72.50;;;;;;6181165;23;20531;-86
2021/08/24 12:39:54;;;;;;;4.97;2.53;;;20.70;70.00;;;;;;6177881;23;20016;-86
2021/08/24 12:42:35;;;;;;;2.90;2.20;;;20.80;71.30;;;;;;6178400;23;20016;-86
2021/08/24 12:45:00;;;;;;;5.05;2.53;;;20.80;69.30;;;;;;6176017;23;20058;-86
2021/08/24 12:47:31;;;;;;;4.47;2.42;;;20.90;70.70;;;;;;6176674;23;20020;-86
2021/08/24 12:50:08;;;;;;;4.78;2.45;;;20.90;73.20;;;;;;6183466;23;20070;-88
2021/08/24 12:52:38;;;;;;;6.03;2.88;;;20.90;71.40;;;;;;6178813;23;20012;-84
2021/08/24 12:55:36;;;;;;;4.13;2.45;;;21.00;71.60;;;;;;6204698;23;20023;-85
2021/08/24 12:58:29;;;;;;;13.02;3.00;;;21.00;69.60;;;;;;6179751;23;20016;-86
2021/08/24 13:01:23;;;;;;;4.07;2.75;;;21.10;69.40;;;;;;6177935;23;20123;-87
2021/08/24 13:04:21;;;;;;;9.75;2.78;;;21.10;69.80;;;;;;6177050;23;20027;-87
2021/08/24 13:07:07;;;;;;;7.50;2.75;;;21.10;66.00;;;;;;6178102;23;20536;-86
2021/08/24 13:09:40;;;;;;;4.22;2.25;;;21.10;71.30;;;;;;6156785;23;20016;-85